sensor_id;sensor_type;location;lat;lon;timestamp;P1;durP1;ratioP1;P2;durP2;ratioP2
7485;SDS011;3784;54.098;9.998;2023-12-07T00:02:18;304.30;;;93.13;;
7485;SDS011;3784;54.098;9.998;2023-12-07T00:04:44;302.67;;;92.17;;
7485;SDS011;3784;54.098;9.998;2023-12-07T00:07:10;314.40;;;94.67;;
7485;SDS011;3784;54.098;9.998;2023-12-07T00:09:38;306.50;;;94.27;;
7485;SDS011;3784;54.098;9.998;2023-12-07T00:12:04;281.87;;;88.60;;
7485;SDS011;3784;54.098;9.998;2023-12-07T00:14:32;266.83;;;91.23;;
7485;SDS011;3784;54.098;9.998;2023-12-07T00:16:59;277.07;;;94.60;;
7485;SDS011;3784;54.098;9.998;2023-12-07T00:19:25;264.30;;;88.70;;
7485;SDS011;3784;54.098;9.998;2023-12-07T00:21:51;276.50;;;87.03;;
7485;SDS011;3784;54.098;9.998;2023-12-07T00:24:18;253.50;;;85.30;;
7485;SDS011;3784;54.098;9.998;2023-12-07T00:26:45;266.43;;;89.60;;
7485;SDS011;3784;54.098;9.998;2023-12-07T00:29:11;285.30;;;91.50;;
7485;SDS011;3784;54.098;9.998;2023-12-07T00:31:38;315.00;;;94.17;;
7485;SDS011;3784;54.098;9.998;2023-12-07T00:34:04;280.90;;;88.90;;
7485;SDS011;3784;54.098;9.998;2023-12-07T00:36:30;268.13;;;88.20;;
7485;SDS011;3784;54.098;9.998;2023-12-07T00:38:57;268.40;;;90.57;;
7485;SDS011;3784;54.098;9.998;2023-12-07T00:41:23;288.37;;;93.93;;
7485;SDS011;3784;54.098;9.998;2023-12-07T00:43:50;268.07;;;87.77;;
7485;SDS011;3784;54.098;9.998;2023-12-07T00:46:16;282.63;;;92.63;;
7485;SDS011;3784;54.098;9.998;2023-12-07T00:48:42;254.97;;;88.53;;
7485;SDS011;3784;54.098;9.998;2023-12-07T00:51:09;281.40;;;87.97;;
7485;SDS011;3784;54.098;9.998;2023-12-07T00:53:35;272.57;;;88.63;;
7485;SDS011;3784;54.098;9.998;2023-12-07T00:56:02;248.40;;;84.70;;
7485;SDS011;3784;54.098;9.998;2023-12-07T00:58:30;280.07;;;88.37;;
7485;SDS011;3784;54.098;9.998;2023-12-07T01:00:56;256.77;;;85.30;;
7485;SDS011;3784;54.098;9.998;2023-12-07T01:03:23;257.77;;;85.93;;
7485;SDS011;3784;54.098;9.998;2023-12-07T01:05:49;233.13;;;84.77;;
7485;SDS011;3784;54.098;9.998;2023-12-07T01:08:16;239.80;;;84.27;;
7485;SDS011;3784;54.098;9.998;2023-12-07T01:10:42;263.17;;;87.67;;
7485;SDS011;3784;54.098;9.998;2023-12-07T01:13:08;254.07;;;86.53;;
7485;SDS011;3784;54.098;9.998;2023-12-07T01:15:35;242.10;;;80.60;;
7485;SDS011;3784;54.098;9.998;2023-12-07T01:18:01;262.07;;;84.83;;
7485;SDS011;3784;54.098;9.998;2023-12-07T01:20:28;211.80;;;80.77;;
7485;SDS011;3784;54.098;9.998;2023-12-07T01:22:54;224.90;;;84.50;;
7485;SDS011;3784;54.098;9.998;2023-12-07T01:25:21;263.43;;;86.63;;
7485;SDS011;3784;54.098;9.998;2023-12-07T01:27:49;238.87;;;83.17;;
7485;SDS011;3784;54.098;9.998;2023-12-07T01:30:15;259.03;;;89.10;;
7485;SDS011;3784;54.098;9.998;2023-12-07T01:32:42;281.47;;;90.63;;
7485;SDS011;3784;54.098;9.998;2023-12-07T01:35:09;263.07;;;88.87;;
7485;SDS011;3784;54.098;9.998;2023-12-07T01:37:35;266.53;;;89.70;;
7485;SDS011;3784;54.098;9.998;2023-12-07T01:40:02;233.13;;;86.60;;
7485;SDS011;3784;54.098;9.998;2023-12-07T01:42:32;225.10;;;81.27;;
7485;SDS011;3784;54.098;9.998;2023-12-07T01:44:58;258.50;;;87.07;;
7485;SDS011;3784;54.098;9.998;2023-12-07T01:47:25;275.63;;;88.30;;
7485;SDS011;3784;54.098;9.998;2023-12-07T01:49:51;280.27;;;90.40;;
7485;SDS011;3784;54.098;9.998;2023-12-07T01:52:18;288.43;;;92.63;;
7485;SDS011;3784;54.098;9.998;2023-12-07T01:54:48;330.43;;;95.30;;
7485;SDS011;3784;54.098;9.998;2023-12-07T01:57:15;338.10;;;98.53;;
7485;SDS011;3784;54.098;9.998;2023-12-07T01:59:41;304.67;;;97.70;;
7485;SDS011;3784;54.098;9.998;2023-12-07T02:02:08;265.80;;;86.60;;
7485;SDS011;3784;54.098;9.998;2023-12-07T02:04:35;335.77;;;95.63;;
7485;SDS011;3784;54.098;9.998;2023-12-07T02:07:01;289.00;;;92.30;;
7485;SDS011;3784;54.098;9.998;2023-12-07T02:09:29;399.07;;;96.27;;
7485;SDS011;3784;54.098;9.998;2023-12-07T02:11:55;337.40;;;96.03;;
7485;SDS011;3784;54.098;9.998;2023-12-07T02:14:22;293.57;;;93.93;;
7485;SDS011;3784;54.098;9.998;2023-12-07T02:16:49;271.23;;;90.90;;
7485;SDS011;3784;54.098;9.998;2023-12-07T02:21:47;506.00;;;109.60;;
7485;SDS011;3784;54.098;9.998;2023-12-07T02:24:20;322.83;;;95.40;;
7485;SDS011;3784;54.098;9.998;2023-12-07T02:26:48;361.10;;;97.00;;
7485;SDS011;3784;54.098;9.998;2023-12-07T02:29:15;325.37;;;95.60;;
7485;SDS011;3784;54.098;9.998;2023-12-07T02:31:41;372.07;;;101.63;;
7485;SDS011;3784;54.098;9.998;2023-12-07T02:34:08;297.03;;;93.33;;
7485;SDS011;3784;54.098;9.998;2023-12-07T02:36:35;341.27;;;94.40;;
7485;SDS011;3784;54.098;9.998;2023-12-07T02:39:04;276.50;;;89.00;;
7485;SDS011;3784;54.098;9.998;2023-12-07T02:41:31;265.10;;;89.83;;
7485;SDS011;3784;54.098;9.998;2023-12-07T02:43:59;303.23;;;90.17;;
7485;SDS011;3784;54.098;9.998;2023-12-07T02:46:26;392.10;;;101.17;;
7485;SDS011;3784;54.098;9.998;2023-12-07T02:48:52;333.37;;;93.43;;
7485;SDS011;3784;54.098;9.998;2023-12-07T02:51:19;314.90;;;97.00;;
7485;SDS011;3784;54.098;9.998;2023-12-07T02:53:45;293.57;;;91.93;;
7485;SDS011;3784;54.098;9.998;2023-12-07T02:56:12;320.40;;;93.93;;
7485;SDS011;3784;54.098;9.998;2023-12-07T02:58:38;373.60;;;101.20;;
7485;SDS011;3784;54.098;9.998;2023-12-07T03:01:05;354.83;;;95.63;;
7485;SDS011;3784;54.098;9.998;2023-12-07T03:03:31;365.73;;;94.30;;
7485;SDS011;3784;54.098;9.998;2023-12-07T03:05:58;419.67;;;101.70;;
7485;SDS011;3784;54.098;9.998;2023-12-07T03:08:27;398.10;;;102.47;;
7485;SDS011;3784;54.098;9.998;2023-12-07T03:10:54;364.90;;;100.67;;
7485;SDS011;3784;54.098;9.998;2023-12-07T03:13:21;318.30;;;89.33;;
7485;SDS011;3784;54.098;9.998;2023-12-07T03:15:47;367.03;;;97.63;;
7485;SDS011;3784;54.098;9.998;2023-12-07T03:18:14;418.47;;;104.37;;
7485;SDS011;3784;54.098;9.998;2023-12-07T03:20:40;429.37;;;102.77;;
7485;SDS011;3784;54.098;9.998;2023-12-07T03:23:07;582.50;;;114.60;;
7485;SDS011;3784;54.098;9.998;2023-12-07T03:25:34;403.30;;;99.77;;
7485;SDS011;3784;54.098;9.998;2023-12-07T03:28:00;354.00;;;99.87;;
7485;SDS011;3784;54.098;9.998;2023-12-07T03:30:27;373.30;;;97.97;;
7485;SDS011;3784;54.098;9.998;2023-12-07T03:32:53;351.37;;;95.77;;
7485;SDS011;3784;54.098;9.998;2023-12-07T03:35:20;305.43;;;92.17;;
7485;SDS011;3784;54.098;9.998;2023-12-07T03:37:46;537.83;;;111.80;;
7485;SDS011;3784;54.098;9.998;2023-12-07T03:40:13;442.50;;;103.80;;
7485;SDS011;3784;54.098;9.998;2023-12-07T03:42:39;446.07;;;104.60;;
7485;SDS011;3784;54.098;9.998;2023-12-07T03:45:21;418.53;;;98.77;;
7485;SDS011;3784;54.098;9.998;2023-12-07T03:47:48;408.07;;;100.40;;
7485;SDS011;3784;54.098;9.998;2023-12-07T03:50:15;453.03;;;101.07;;
7485;SDS011;3784;54.098;9.998;2023-12-07T03:52:41;532.47;;;109.37;;
7485;SDS011;3784;54.098;9.998;2023-12-07T03:55:07;439.87;;;102.80;;
7485;SDS011;3784;54.098;9.998;2023-12-07T03:57:34;517.17;;;103.93;;
7485;SDS011;3784;54.098;9.998;2023-12-07T04:00:00;396.27;;;99.80;;
7485;SDS011;3784;54.098;9.998;2023-12-07T04:02:27;474.00;;;103.30;;
7485;SDS011;3784;54.098;9.998;2023-12-07T04:04:53;506.80;;;106.73;;
7485;SDS011;3784;54.098;9.998;2023-12-07T04:07:20;403.60;;;98.77;;
7485;SDS011;3784;54.098;9.998;2023-12-07T04:09:46;526.10;;;106.20;;
7485;SDS011;3784;54.098;9.998;2023-12-07T04:12:12;508.93;;;103.87;;
7485;SDS011;3784;54.098;9.998;2023-12-07T04:14:39;532.57;;;108.87;;
7485;SDS011;3784;54.098;9.998;2023-12-07T04:17:05;471.20;;;106.07;;
7485;SDS011;3784;54.098;9.998;2023-12-07T04:19:31;467.37;;;101.13;;
7485;SDS011;3784;54.098;9.998;2023-12-07T04:21:58;406.73;;;99.50;;
7485;SDS011;3784;54.098;9.998;2023-12-07T04:24:24;397.37;;;104.70;;
7485;SDS011;3784;54.098;9.998;2023-12-07T04:26:51;340.97;;;93.93;;
7485;SDS011;3784;54.098;9.998;2023-12-07T04:29:17;340.80;;;95.43;;
7485;SDS011;3784;54.098;9.998;2023-12-07T04:31:43;531.27;;;104.43;;
7485;SDS011;3784;54.098;9.998;2023-12-07T04:34:10;664.77;;;114.27;;
7485;SDS011;3784;54.098;9.998;2023-12-07T04:36:37;418.50;;;99.63;;
7485;SDS011;3784;54.098;9.998;2023-12-07T04:39:03;353.10;;;93.03;;
7485;SDS011;3784;54.098;9.998;2023-12-07T04:41:29;384.30;;;94.40;;
7485;SDS011;3784;54.098;9.998;2023-12-07T04:43:56;600.13;;;101.80;;
7485;SDS011;3784;54.098;9.998;2023-12-07T04:46:22;419.90;;;96.83;;
7485;SDS011;3784;54.098;9.998;2023-12-07T04:48:48;440.57;;;92.53;;
7485;SDS011;3784;54.098;9.998;2023-12-07T04:51:15;321.10;;;86.10;;
7485;SDS011;3784;54.098;9.998;2023-12-07T04:53:41;335.03;;;85.33;;
7485;SDS011;3784;54.098;9.998;2023-12-07T04:56:08;913.20;;;114.97;;
7485;SDS011;3784;54.098;9.998;2023-12-07T04:58:35;761.87;;;112.70;;
7485;SDS011;3784;54.098;9.998;2023-12-07T05:01:01;632.07;;;98.03;;
7485;SDS011;3784;54.098;9.998;2023-12-07T05:03:29;363.93;;;87.37;;
7485;SDS011;3784;54.098;9.998;2023-12-07T05:05:55;478.43;;;92.87;;
7485;SDS011;3784;54.098;9.998;2023-12-07T05:08:22;331.87;;;86.87;;
7485;SDS011;3784;54.098;9.998;2023-12-07T05:10:48;361.07;;;89.20;;
7485;SDS011;3784;54.098;9.998;2023-12-07T05:13:15;374.10;;;85.23;;
7485;SDS011;3784;54.098;9.998;2023-12-07T05:15:41;657.63;;;101.93;;
7485;SDS011;3784;54.098;9.998;2023-12-07T05:18:07;720.97;;;106.17;;
7485;SDS011;3784;54.098;9.998;2023-12-07T05:20:34;835.53;;;112.57;;
7485;SDS011;3784;54.098;9.998;2023-12-07T05:23:02;483.03;;;99.33;;
7485;SDS011;3784;54.098;9.998;2023-12-07T05:25:29;984.97;;;121.20;;
7485;SDS011;3784;54.098;9.998;2023-12-07T05:27:55;783.80;;;114.37;;
7485;SDS011;3784;54.098;9.998;2023-12-07T05:30:23;923.90;;;115.33;;
7485;SDS011;3784;54.098;9.998;2023-12-07T05:32:49;729.20;;;110.57;;
7485;SDS011;3784;54.098;9.998;2023-12-07T05:35:16;949.57;;;120.73;;
7485;SDS011;3784;54.098;9.998;2023-12-07T05:37:43;417.80;;;93.37;;
7485;SDS011;3784;54.098;9.998;2023-12-07T05:40:09;516.53;;;98.13;;
7485;SDS011;3784;54.098;9.998;2023-12-07T05:42:38;856.73;;;112.27;;
7485;SDS011;3784;54.098;9.998;2023-12-07T05:45:05;619.83;;;105.07;;
7485;SDS011;3784;54.098;9.998;2023-12-07T05:47:32;365.13;;;88.87;;
7485;SDS011;3784;54.098;9.998;2023-12-07T05:49:59;667.70;;;110.90;;
7485;SDS011;3784;54.098;9.998;2023-12-07T05:52:26;539.57;;;103.73;;
7485;SDS011;3784;54.098;9.998;2023-12-07T05:54:53;659.57;;;106.17;;
7485;SDS011;3784;54.098;9.998;2023-12-07T05:57:19;597.03;;;103.03;;
7485;SDS011;3784;54.098;9.998;2023-12-07T05:59:46;440.87;;;92.10;;
7485;SDS011;3784;54.098;9.998;2023-12-07T06:02:12;553.93;;;102.73;;
7485;SDS011;3784;54.098;9.998;2023-12-07T06:04:39;616.20;;;104.70;;
7485;SDS011;3784;54.098;9.998;2023-12-07T06:07:07;421.53;;;90.87;;
7485;SDS011;3784;54.098;9.998;2023-12-07T06:09:33;404.60;;;91.23;;
7485;SDS011;3784;54.098;9.998;2023-12-07T06:12:00;446.10;;;93.83;;
7485;SDS011;3784;54.098;9.998;2023-12-07T06:14:26;432.47;;;96.50;;
7485;SDS011;3784;54.098;9.998;2023-12-07T06:16:53;718.73;;;107.03;;
7485;SDS011;3784;54.098;9.998;2023-12-07T06:19:19;421.20;;;92.77;;
7485;SDS011;3784;54.098;9.998;2023-12-07T06:21:45;736.03;;;106.73;;
7485;SDS011;3784;54.098;9.998;2023-12-07T06:24:12;483.47;;;91.83;;
7485;SDS011;3784;54.098;9.998;2023-12-07T06:26:40;611.77;;;99.60;;
7485;SDS011;3784;54.098;9.998;2023-12-07T06:29:06;391.50;;;86.03;;
7485;SDS011;3784;54.098;9.998;2023-12-07T06:31:33;523.23;;;95.97;;
7485;SDS011;3784;54.098;9.998;2023-12-07T06:34:00;537.30;;;96.17;;
7485;SDS011;3784;54.098;9.998;2023-12-07T06:36:27;462.90;;;88.97;;
7485;SDS011;3784;54.098;9.998;2023-12-07T06:38:53;574.80;;;97.63;;
7485;SDS011;3784;54.098;9.998;2023-12-07T06:41:21;563.10;;;98.87;;
7485;SDS011;3784;54.098;9.998;2023-12-07T06:43:47;738.17;;;103.17;;
7485;SDS011;3784;54.098;9.998;2023-12-07T06:46:14;662.23;;;106.07;;
7485;SDS011;3784;54.098;9.998;2023-12-07T06:48:42;455.13;;;90.90;;
7485;SDS011;3784;54.098;9.998;2023-12-07T06:51:08;682.63;;;107.40;;
7485;SDS011;3784;54.098;9.998;2023-12-07T06:53:35;779.90;;;111.23;;
7485;SDS011;3784;54.098;9.998;2023-12-07T06:56:01;499.93;;;92.83;;
7485;SDS011;3784;54.098;9.998;2023-12-07T06:58:28;575.60;;;99.53;;
7485;SDS011;3784;54.098;9.998;2023-12-07T07:00:54;757.53;;;107.57;;
7485;SDS011;3784;54.098;9.998;2023-12-07T07:03:21;664.80;;;103.57;;
7485;SDS011;3784;54.098;9.998;2023-12-07T07:05:47;473.70;;;95.47;;
7485;SDS011;3784;54.098;9.998;2023-12-07T07:08:14;453.47;;;93.67;;
7485;SDS011;3784;54.098;9.998;2023-12-07T07:10:40;438.13;;;92.97;;
7485;SDS011;3784;54.098;9.998;2023-12-07T07:13:06;507.03;;;99.27;;
7485;SDS011;3784;54.098;9.998;2023-12-07T07:15:33;405.53;;;92.27;;
7485;SDS011;3784;54.098;9.998;2023-12-07T07:18:00;530.87;;;99.43;;
7485;SDS011;3784;54.098;9.998;2023-12-07T07:20:27;562.73;;;100.10;;
7485;SDS011;3784;54.098;9.998;2023-12-07T07:22:53;482.40;;;98.87;;
7485;SDS011;3784;54.098;9.998;2023-12-07T07:25:20;483.07;;;98.50;;
7485;SDS011;3784;54.098;9.998;2023-12-07T07:27:46;532.07;;;99.27;;
7485;SDS011;3784;54.098;9.998;2023-12-07T07:30:13;575.80;;;103.37;;
7485;SDS011;3784;54.098;9.998;2023-12-07T07:32:39;514.37;;;100.80;;
7485;SDS011;3784;54.098;9.998;2023-12-07T07:35:06;510.97;;;103.07;;
7485;SDS011;3784;54.098;9.998;2023-12-07T07:37:33;463.13;;;93.60;;
7485;SDS011;3784;54.098;9.998;2023-12-07T07:40:00;472.87;;;96.87;;
7485;SDS011;3784;54.098;9.998;2023-12-07T07:42:26;559.03;;;104.93;;
7485;SDS011;3784;54.098;9.998;2023-12-07T07:44:53;441.33;;;93.37;;
7485;SDS011;3784;54.098;9.998;2023-12-07T07:47:19;455.70;;;97.33;;
7485;SDS011;3784;54.098;9.998;2023-12-07T07:49:45;513.37;;;98.07;;
7485;SDS011;3784;54.098;9.998;2023-12-07T07:52:12;598.27;;;100.07;;
7485;SDS011;3784;54.098;9.998;2023-12-07T07:54:38;436.70;;;93.77;;
7485;SDS011;3784;54.098;9.998;2023-12-07T07:57:05;384.40;;;84.83;;
7485;SDS011;3784;54.098;9.998;2023-12-07T07:59:31;536.23;;;95.97;;
7485;SDS011;3784;54.098;9.998;2023-12-07T08:01:57;459.50;;;90.60;;
7485;SDS011;3784;54.098;9.998;2023-12-07T08:04:24;516.00;;;93.47;;
7485;SDS011;3784;54.098;9.998;2023-12-07T08:06:50;532.20;;;99.53;;
7485;SDS011;3784;54.098;9.998;2023-12-07T08:09:17;498.57;;;97.47;;
7485;SDS011;3784;54.098;9.998;2023-12-07T08:11:43;493.93;;;94.27;;
7485;SDS011;3784;54.098;9.998;2023-12-07T08:14:09;518.73;;;97.77;;
7485;SDS011;3784;54.098;9.998;2023-12-07T08:16:36;440.60;;;91.87;;
7485;SDS011;3784;54.098;9.998;2023-12-07T08:19:02;498.20;;;94.73;;
7485;SDS011;3784;54.098;9.998;2023-12-07T08:21:29;466.17;;;93.10;;
7485;SDS011;3784;54.098;9.998;2023-12-07T08:23:56;474.30;;;91.60;;
7485;SDS011;3784;54.098;9.998;2023-12-07T08:26:23;427.97;;;91.77;;
7485;SDS011;3784;54.098;9.998;2023-12-07T08:28:49;399.17;;;88.53;;
7485;SDS011;3784;54.098;9.998;2023-12-07T08:31:16;403.27;;;86.40;;
7485;SDS011;3784;54.098;9.998;2023-12-07T08:33:43;403.40;;;87.20;;
7485;SDS011;3784;54.098;9.998;2023-12-07T08:36:10;466.87;;;94.43;;
7485;SDS011;3784;54.098;9.998;2023-12-07T08:38:36;376.17;;;84.90;;
7485;SDS011;3784;54.098;9.998;2023-12-07T08:41:03;380.13;;;86.63;;
7485;SDS011;3784;54.098;9.998;2023-12-07T08:43:30;410.03;;;84.93;;
7485;SDS011;3784;54.098;9.998;2023-12-07T08:45:57;380.50;;;82.77;;
7485;SDS011;3784;54.098;9.998;2023-12-07T08:48:27;369.73;;;83.13;;
7485;SDS011;3784;54.098;9.998;2023-12-07T08:50:54;354.90;;;85.43;;
7485;SDS011;3784;54.098;9.998;2023-12-07T08:53:20;396.63;;;85.23;;
7485;SDS011;3784;54.098;9.998;2023-12-07T08:55:46;400.43;;;87.23;;
7485;SDS011;3784;54.098;9.998;2023-12-07T08:58:13;370.53;;;84.33;;
7485;SDS011;3784;54.098;9.998;2023-12-07T09:00:39;325.70;;;80.87;;
7485;SDS011;3784;54.098;9.998;2023-12-07T09:03:06;347.57;;;79.93;;
7485;SDS011;3784;54.098;9.998;2023-12-07T09:05:32;308.40;;;73.47;;
7485;SDS011;3784;54.098;9.998;2023-12-07T09:07:59;294.53;;;77.47;;
7485;SDS011;3784;54.098;9.998;2023-12-07T09:10:26;329.70;;;78.37;;
7485;SDS011;3784;54.098;9.998;2023-12-07T09:12:52;343.27;;;81.57;;
7485;SDS011;3784;54.098;9.998;2023-12-07T09:15:18;307.30;;;75.50;;
7485;SDS011;3784;54.098;9.998;2023-12-07T09:17:45;345.23;;;83.37;;
7485;SDS011;3784;54.098;9.998;2023-12-07T09:20:12;311.30;;;79.53;;
7485;SDS011;3784;54.098;9.998;2023-12-07T09:22:43;293.53;;;76.60;;
7485;SDS011;3784;54.098;9.998;2023-12-07T09:25:11;311.00;;;77.73;;
7485;SDS011;3784;54.098;9.998;2023-12-07T09:27:38;260.40;;;72.93;;
7485;SDS011;3784;54.098;9.998;2023-12-07T09:30:05;362.87;;;80.73;;
7485;SDS011;3784;54.098;9.998;2023-12-07T09:32:33;300.37;;;78.23;;
7485;SDS011;3784;54.098;9.998;2023-12-07T09:35:04;322.63;;;76.83;;
7485;SDS011;3784;54.098;9.998;2023-12-07T09:37:33;318.80;;;76.47;;
7485;SDS011;3784;54.098;9.998;2023-12-07T09:40:00;326.47;;;78.80;;
7485;SDS011;3784;54.098;9.998;2023-12-07T09:42:27;300.80;;;81.37;;
7485;SDS011;3784;54.098;9.998;2023-12-07T09:45:02;201.87;;;68.53;;
7485;SDS011;3784;54.098;9.998;2023-12-07T09:47:29;270.73;;;74.57;;
7485;SDS011;3784;54.098;9.998;2023-12-07T09:50:03;285.43;;;78.07;;
7485;SDS011;3784;54.098;9.998;2023-12-07T09:52:34;316.43;;;80.87;;
7485;SDS011;3784;54.098;9.998;2023-12-07T09:55:05;231.33;;;75.10;;
7485;SDS011;3784;54.098;9.998;2023-12-07T09:57:32;263.80;;;73.33;;
7485;SDS011;3784;54.098;9.998;2023-12-07T10:00:00;275.60;;;75.93;;
7485;SDS011;3784;54.098;9.998;2023-12-07T10:02:27;317.07;;;79.37;;
7485;SDS011;3784;54.098;9.998;2023-12-07T10:05:03;259.80;;;75.57;;
7485;SDS011;3784;54.098;9.998;2023-12-07T10:07:34;233.10;;;72.87;;
7485;SDS011;3784;54.098;9.998;2023-12-07T10:10:04;260.90;;;75.20;;
7485;SDS011;3784;54.098;9.998;2023-12-07T10:12:32;215.10;;;70.13;;
7485;SDS011;3784;54.098;9.998;2023-12-07T10:15:15;273.83;;;71.80;;
7485;SDS011;3784;54.098;9.998;2023-12-07T10:20:20;272.20;;;74.87;;
7485;SDS011;3784;54.098;9.998;2023-12-07T10:23:01;252.87;;;72.83;;
7485;SDS011;3784;54.098;9.998;2023-12-07T10:25:34;268.30;;;70.23;;
7485;SDS011;3784;54.098;9.998;2023-12-07T10:28:02;243.10;;;65.67;;
7485;SDS011;3784;54.098;9.998;2023-12-07T10:30:33;234.07;;;67.60;;
7485;SDS011;3784;54.098;9.998;2023-12-07T10:33:02;181.73;;;61.53;;
7485;SDS011;3784;54.098;9.998;2023-12-07T10:35:30;222.57;;;66.33;;
7485;SDS011;3784;54.098;9.998;2023-12-07T10:37:58;211.83;;;63.27;;
7485;SDS011;3784;54.098;9.998;2023-12-07T10:40:24;208.17;;;66.50;;
7485;SDS011;3784;54.098;9.998;2023-12-07T10:42:52;191.13;;;64.57;;
7485;SDS011;3784;54.098;9.998;2023-12-07T10:45:24;197.80;;;63.13;;
7485;SDS011;3784;54.098;9.998;2023-12-07T10:47:51;198.83;;;63.13;;
7485;SDS011;3784;54.098;9.998;2023-12-07T10:50:18;149.97;;;57.10;;
7485;SDS011;3784;54.098;9.998;2023-12-07T10:52:52;151.60;;;59.27;;
7485;SDS011;3784;54.098;9.998;2023-12-07T10:55:22;176.20;;;63.87;;
7485;SDS011;3784;54.098;9.998;2023-12-07T10:57:55;169.93;;;58.93;;
7485;SDS011;3784;54.098;9.998;2023-12-07T11:00:22;183.97;;;60.33;;
7485;SDS011;3784;54.098;9.998;2023-12-07T11:03:09;159.40;;;59.50;;
7485;SDS011;3784;54.098;9.998;2023-12-07T11:05:36;184.33;;;59.03;;
7485;SDS011;3784;54.098;9.998;2023-12-07T11:08:07;188.63;;;59.03;;
7485;SDS011;3784;54.098;9.998;2023-12-07T11:10:42;178.17;;;58.67;;
7485;SDS011;3784;54.098;9.998;2023-12-07T11:16:00;202.40;;;63.47;;
7485;SDS011;3784;54.098;9.998;2023-12-07T11:18:27;191.70;;;63.03;;
7485;SDS011;3784;54.098;9.998;2023-12-07T11:20:54;197.57;;;63.20;;
7485;SDS011;3784;54.098;9.998;2023-12-07T11:23:21;226.07;;;63.97;;
7485;SDS011;3784;54.098;9.998;2023-12-07T11:25:49;214.13;;;66.43;;
7485;SDS011;3784;54.098;9.998;2023-12-07T11:28:17;234.00;;;68.00;;
7485;SDS011;3784;54.098;9.998;2023-12-07T11:30:46;258.17;;;71.13;;
7485;SDS011;3784;54.098;9.998;2023-12-07T11:33:14;250.43;;;73.53;;
7485;SDS011;3784;54.098;9.998;2023-12-07T11:38:30;260.17;;;74.67;;
7485;SDS011;3784;54.098;9.998;2023-12-07T11:40:56;274.07;;;72.50;;
7485;SDS011;3784;54.098;9.998;2023-12-07T11:45:59;265.73;;;72.07;;
7485;SDS011;3784;54.098;9.998;2023-12-07T11:48:26;269.20;;;78.13;;
7485;SDS011;3784;54.098;9.998;2023-12-07T11:50:56;277.67;;;74.47;;
7485;SDS011;3784;54.098;9.998;2023-12-07T11:53:27;256.20;;;71.67;;
7485;SDS011;3784;54.098;9.998;2023-12-07T11:55:58;267.80;;;73.17;;
7485;SDS011;3784;54.098;9.998;2023-12-07T11:58:25;267.07;;;75.03;;
7485;SDS011;3784;54.098;9.998;2023-12-07T12:00:56;265.30;;;75.93;;
7485;SDS011;3784;54.098;9.998;2023-12-07T12:03:23;239.83;;;72.33;;
7485;SDS011;3784;54.098;9.998;2023-12-07T12:05:50;217.37;;;72.70;;
7485;SDS011;3784;54.098;9.998;2023-12-07T12:08:17;241.40;;;72.23;;
7485;SDS011;3784;54.098;9.998;2023-12-07T12:10:45;201.10;;;68.43;;
7485;SDS011;3784;54.098;9.998;2023-12-07T12:13:12;192.77;;;69.13;;
7485;SDS011;3784;54.098;9.998;2023-12-07T12:15:39;197.43;;;68.73;;
7485;SDS011;3784;54.098;9.998;2023-12-07T12:18:06;212.83;;;66.77;;
7485;SDS011;3784;54.098;9.998;2023-12-07T12:20:34;192.50;;;63.63;;
7485;SDS011;3784;54.098;9.998;2023-12-07T12:23:00;210.63;;;67.37;;
7485;SDS011;3784;54.098;9.998;2023-12-07T12:25:28;215.70;;;67.70;;
7485;SDS011;3784;54.098;9.998;2023-12-07T12:27:57;179.10;;;65.43;;
7485;SDS011;3784;54.098;9.998;2023-12-07T12:30:27;189.83;;;62.40;;
7485;SDS011;3784;54.098;9.998;2023-12-07T12:32:53;203.70;;;61.57;;
7485;SDS011;3784;54.098;9.998;2023-12-07T12:35:20;184.97;;;59.97;;
7485;SDS011;3784;54.098;9.998;2023-12-07T12:37:47;144.50;;;55.50;;
7485;SDS011;3784;54.098;9.998;2023-12-07T12:40:18;164.67;;;57.57;;
7485;SDS011;3784;54.098;9.998;2023-12-07T12:42:47;153.13;;;54.03;;
7485;SDS011;3784;54.098;9.998;2023-12-07T12:45:21;129.17;;;47.80;;
7485;SDS011;3784;54.098;9.998;2023-12-07T12:47:48;141.57;;;49.93;;
7485;SDS011;3784;54.098;9.998;2023-12-07T12:53:05;148.17;;;52.83;;
7485;SDS011;3784;54.098;9.998;2023-12-07T12:55:33;151.97;;;52.60;;
7485;SDS011;3784;54.098;9.998;2023-12-07T12:58:01;127.30;;;51.33;;
7485;SDS011;3784;54.098;9.998;2023-12-07T13:00:30;149.10;;;52.97;;
7485;SDS011;3784;54.098;9.998;2023-12-07T13:03:00;150.37;;;50.83;;
7485;SDS011;3784;54.098;9.998;2023-12-07T13:05:28;100.53;;;46.17;;
7485;SDS011;3784;54.098;9.998;2023-12-07T13:07:54;130.10;;;49.83;;
7485;SDS011;3784;54.098;9.998;2023-12-07T13:10:37;145.87;;;50.93;;
7485;SDS011;3784;54.098;9.998;2023-12-07T13:13:04;161.73;;;53.47;;
7485;SDS011;3784;54.098;9.998;2023-12-07T13:15:33;139.70;;;51.73;;
7485;SDS011;3784;54.098;9.998;2023-12-07T13:17:59;156.27;;;53.07;;
7485;SDS011;3784;54.098;9.998;2023-12-07T13:20:29;152.27;;;53.57;;
7485;SDS011;3784;54.098;9.998;2023-12-07T13:23:15;146.67;;;52.03;;
7485;SDS011;3784;54.098;9.998;2023-12-07T13:25:41;216.30;;;57.53;;
7485;SDS011;3784;54.098;9.998;2023-12-07T13:28:08;140.07;;;49.23;;
7485;SDS011;3784;54.098;9.998;2023-12-07T13:30:37;139.17;;;51.63;;
7485;SDS011;3784;54.098;9.998;2023-12-07T13:33:05;128.90;;;50.57;;
7485;SDS011;3784;54.098;9.998;2023-12-07T13:35:50;145.97;;;52.77;;
7485;SDS011;3784;54.098;9.998;2023-12-07T13:38:18;195.77;;;54.20;;
7485;SDS011;3784;54.098;9.998;2023-12-07T13:40:46;189.43;;;54.87;;
7485;SDS011;3784;54.098;9.998;2023-12-07T13:43:13;205.23;;;55.27;;
7485;SDS011;3784;54.098;9.998;2023-12-07T13:45:43;197.23;;;54.33;;
7485;SDS011;3784;54.098;9.998;2023-12-07T13:48:09;210.73;;;54.70;;
7485;SDS011;3784;54.098;9.998;2023-12-07T13:50:36;164.40;;;53.50;;
7485;SDS011;3784;54.098;9.998;2023-12-07T13:53:02;145.47;;;50.70;;
7485;SDS011;3784;54.098;9.998;2023-12-07T13:55:29;160.67;;;51.93;;
7485;SDS011;3784;54.098;9.998;2023-12-07T13:57:55;249.57;;;57.97;;
7485;SDS011;3784;54.098;9.998;2023-12-07T14:00:23;212.10;;;55.03;;
7485;SDS011;3784;54.098;9.998;2023-12-07T14:02:50;234.03;;;61.67;;
7485;SDS011;3784;54.098;9.998;2023-12-07T14:05:16;240.90;;;56.83;;
7485;SDS011;3784;54.098;9.998;2023-12-07T14:07:47;225.97;;;56.27;;
7485;SDS011;3784;54.098;9.998;2023-12-07T14:10:14;222.53;;;55.17;;
7485;SDS011;3784;54.098;9.998;2023-12-07T14:12:41;207.27;;;52.57;;
7485;SDS011;3784;54.098;9.998;2023-12-07T14:15:08;273.87;;;55.17;;
7485;SDS011;3784;54.098;9.998;2023-12-07T14:17:35;199.50;;;50.83;;
7485;SDS011;3784;54.098;9.998;2023-12-07T14:20:15;252.67;;;51.17;;
7485;SDS011;3784;54.098;9.998;2023-12-07T14:23:02;215.00;;;50.40;;
7485;SDS011;3784;54.098;9.998;2023-12-07T14:25:30;235.70;;;49.43;;
7485;SDS011;3784;54.098;9.998;2023-12-07T14:27:57;233.20;;;49.57;;
7485;SDS011;3784;54.098;9.998;2023-12-07T14:30:23;184.77;;;45.10;;
7485;SDS011;3784;54.098;9.998;2023-12-07T14:32:49;295.30;;;50.73;;
7485;SDS011;3784;54.098;9.998;2023-12-07T14:35:19;190.67;;;45.27;;
7485;SDS011;3784;54.098;9.998;2023-12-07T14:37:47;267.33;;;52.43;;
7485;SDS011;3784;54.098;9.998;2023-12-07T14:40:16;242.83;;;49.97;;
7485;SDS011;3784;54.098;9.998;2023-12-07T14:42:43;326.07;;;52.63;;
7485;SDS011;3784;54.098;9.998;2023-12-07T14:45:10;228.40;;;49.10;;
7485;SDS011;3784;54.098;9.998;2023-12-07T14:47:37;312.00;;;53.67;;
7485;SDS011;3784;54.098;9.998;2023-12-07T14:50:03;309.17;;;51.30;;
7485;SDS011;3784;54.098;9.998;2023-12-07T14:52:32;272.17;;;51.90;;